sensor_id;sensor_type;location;lat;lon;timestamp;pressure;altitude;pressure_sealevel;temperature;humidity
43436;BME280;36399;51.444;-2.018;2023-07-09T00:01:56;101708.00;;;14.06;100.00
43436;BME280;36399;51.444;-2.018;2023-07-09T00:04:22;101695.53;;;14.00;100.00
43436;BME280;36399;51.444;-2.018;2023-07-09T00:06:48;101697.34;;;14.03;100.00
43436;BME280;36399;51.444;-2.018;2023-07-09T00:09:19;101686.63;;;13.94;100.00
43436;BME280;36399;51.444;-2.018;2023-07-09T00:11:46;101697.13;;;13.90;100.00
43436;BME280;36399;51.444;-2.018;2023-07-09T00:14:14;101691.72;;;13.84;100.00
43436;BME280;36399;51.444;-2.018;2023-07-09T00:16:42;101700.56;;;13.86;100.00
43436;BME280;36399;51.444;-2.018;2023-07-09T00:19:14;101704.94;;;13.84;100.00
43436;BME280;36399;51.444;-2.018;2023-07-09T00:21:42;101705.00;;;13.89;100.00
43436;BME280;36399;51.444;-2.018;2023-07-09T00:24:08;101707.56;;;13.84;100.00
43436;BME280;36399;51.444;-2.018;2023-07-09T00:26:36;101705.75;;;13.82;100.00
43436;BME280;36399;51.444;-2.018;2023-07-09T00:29:04;101719.06;;;13.88;100.00
43436;BME280;36399;51.444;-2.018;2023-07-09T00:31:30;101711.88;;;13.79;100.00
43436;BME280;36399;51.444;-2.018;2023-07-09T00:33:56;101702.88;;;13.70;100.00
43436;BME280;36399;51.444;-2.018;2023-07-09T00:36:26;101703.84;;;13.73;100.00
43436;BME280;36399;51.444;-2.018;2023-07-09T00:38:54;101719.00;;;13.85;100.00
43436;BME280;36399;51.444;-2.018;2023-07-09T00:41:22;101720.72;;;13.83;100.00
43436;BME280;36399;51.444;-2.018;2023-07-09T00:43:50;101725.94;;;13.78;100.00
43436;BME280;36399;51.444;-2.018;2023-07-09T00:48:50;101719.78;;;13.79;100.00
43436;BME280;36399;51.444;-2.018;2023-07-09T00:51:20;101729.31;;;13.71;100.00
43436;BME280;36399;51.444;-2.018;2023-07-09T00:53:49;101723.03;;;13.66;100.00
43436;BME280;36399;51.444;-2.018;2023-07-09T00:56:27;101721.22;;;13.62;100.00
43436;BME280;36399;51.444;-2.018;2023-07-09T00:58:57;101715.88;;;13.59;100.00
43436;BME280;36399;51.444;-2.018;2023-07-09T01:01:27;101715.69;;;13.51;100.00
43436;BME280;36399;51.444;-2.018;2023-07-09T01:03:54;101720.88;;;13.47;100.00
43436;BME280;36399;51.444;-2.018;2023-07-09T01:06:54;101728.78;;;13.47;100.00
43436;BME280;36399;51.444;-2.018;2023-07-09T01:09:18;101725.19;;;13.43;100.00
43436;BME280;36399;51.444;-2.018;2023-07-09T01:11:47;101724.28;;;13.43;100.00
43436;BME280;36399;51.444;-2.018;2023-07-09T01:14:15;101731.28;;;13.41;100.00
43436;BME280;36399;51.444;-2.018;2023-07-09T01:16:50;101733.94;;;13.41;100.00
43436;BME280;36399;51.444;-2.018;2023-07-09T01:19:28;101745.81;;;13.61;100.00
43436;BME280;36399;51.444;-2.018;2023-07-09T01:21:59;101739.31;;;13.47;100.00
43436;BME280;36399;51.444;-2.018;2023-07-09T01:27:13;101743.56;;;13.39;100.00
43436;BME280;36399;51.444;-2.018;2023-07-09T01:29:39;101744.50;;;13.42;100.00
43436;BME280;36399;51.444;-2.018;2023-07-09T01:32:07;101743.59;;;13.40;100.00
43436;BME280;36399;51.444;-2.018;2023-07-09T01:34:33;101753.25;;;13.40;100.00
43436;BME280;36399;51.444;-2.018;2023-07-09T01:36:59;101742.59;;;13.35;100.00
43436;BME280;36399;51.444;-2.018;2023-07-09T01:39:26;101739.84;;;13.31;100.00
43436;BME280;36399;51.444;-2.018;2023-07-09T01:41:54;101738.91;;;13.27;100.00
43436;BME280;36399;51.444;-2.018;2023-07-09T01:44:21;101738.84;;;13.24;100.00
43436;BME280;36399;51.444;-2.018;2023-07-09T01:46:47;101739.59;;;13.18;100.00
43436;BME280;36399;51.444;-2.018;2023-07-09T01:49:12;101732.38;;;13.11;100.00
43436;BME280;36399;51.444;-2.018;2023-07-09T01:51:40;101720.81;;;13.05;100.00
43436;BME280;36399;51.444;-2.018;2023-07-09T01:54:07;101728.66;;;13.03;100.00
43436;BME280;36399;51.444;-2.018;2023-07-09T01:56:32;101727.78;;;13.03;100.00
43436;BME280;36399;51.444;-2.018;2023-07-09T01:59:05;101734.97;;;13.10;100.00
43436;BME280;36399;51.444;-2.018;2023-07-09T02:01:32;101736.78;;;13.12;100.00
43436;BME280;36399;51.444;-2.018;2023-07-09T02:04:03;101743.22;;;13.23;100.00
43436;BME280;36399;51.444;-2.018;2023-07-09T02:06:29;101739.66;;;13.21;100.00
43436;BME280;36399;51.444;-2.018;2023-07-09T02:08:58;101748.50;;;13.23;100.00
43436;BME280;36399;51.444;-2.018;2023-07-09T02:11:24;101753.91;;;13.30;100.00
43436;BME280;36399;51.444;-2.018;2023-07-09T02:13:50;101752.25;;;13.35;100.00
43436;BME280;36399;51.444;-2.018;2023-07-09T02:16:16;101749.44;;;13.27;100.00
43436;BME280;36399;51.444;-2.018;2023-07-09T02:18:42;101753.91;;;13.30;100.00
43436;BME280;36399;51.444;-2.018;2023-07-09T02:21:11;101759.19;;;13.30;100.00
43436;BME280;36399;51.444;-2.018;2023-07-09T02:23:37;101755.47;;;13.21;100.00
43436;BME280;36399;51.444;-2.018;2023-07-09T02:26:03;101753.47;;;13.11;100.00
43436;BME280;36399;51.444;-2.018;2023-07-09T02:28:29;101741.00;;;13.04;100.00
43436;BME280;36399;51.444;-2.018;2023-07-09T02:30:55;101737.25;;;12.96;100.00
43436;BME280;36399;51.444;-2.018;2023-07-09T02:33:21;101731.84;;;12.90;100.00
43436;BME280;36399;51.444;-2.018;2023-07-09T02:35:47;101727.22;;;12.80;100.00
43436;BME280;36399;51.444;-2.018;2023-07-09T02:38:13;101732.44;;;12.78;100.00
43436;BME280;36399;51.444;-2.018;2023-07-09T02:40:39;101732.41;;;12.77;100.00
43436;BME280;36399;51.444;-2.018;2023-07-09T02:43:05;101738.63;;;12.79;100.00
43436;BME280;36399;51.444;-2.018;2023-07-09T02:45:31;101740.19;;;12.71;100.00
43436;BME280;36399;51.444;-2.018;2023-07-09T02:47:57;101731.19;;;12.62;100.00
43436;BME280;36399;51.444;-2.018;2023-07-09T02:50:23;101732.81;;;12.57;100.00
43436;BME280;36399;51.444;-2.018;2023-07-09T02:52:49;101723.84;;;12.49;100.00
43436;BME280;36399;51.444;-2.018;2023-07-09T02:55:15;101721.25;;;12.51;100.00
43436;BME280;36399;51.444;-2.018;2023-07-09T02:57:41;101733.91;;;12.66;100.00
43436;BME280;36399;51.444;-2.018;2023-07-09T03:00:07;101743.59;;;12.67;100.00
43436;BME280;36399;51.444;-2.018;2023-07-09T03:02:34;101742.81;;;12.71;100.00
43436;BME280;36399;51.444;-2.018;2023-07-09T03:05:00;101746.06;;;12.60;100.00
43436;BME280;36399;51.444;-2.018;2023-07-09T03:07:26;101757.47;;;12.59;100.00
43436;BME280;36399;51.444;-2.018;2023-07-09T03:09:52;101755.69;;;12.58;100.00
43436;BME280;36399;51.444;-2.018;2023-07-09T03:12:18;101751.22;;;12.56;100.00
43436;BME280;36399;51.444;-2.018;2023-07-09T03:14:48;101756.47;;;12.54;100.00
43436;BME280;36399;51.444;-2.018;2023-07-09T03:17:15;101748.63;;;12.57;100.00
43436;BME280;36399;51.444;-2.018;2023-07-09T03:19:40;101742.41;;;12.54;100.00
43436;BME280;36399;51.444;-2.018;2023-07-09T03:22:06;101739.66;;;12.49;100.00
43436;BME280;36399;51.444;-2.018;2023-07-09T03:24:32;101739.59;;;12.48;100.00
43436;BME280;36399;51.444;-2.018;2023-07-09T03:26:58;101739.53;;;12.46;100.00
43436;BME280;36399;51.444;-2.018;2023-07-09T03:29:24;101726.38;;;12.46;100.00
43436;BME280;36399;51.444;-2.018;2023-07-09T03:31:50;101722.78;;;12.43;100.00
43436;BME280;36399;51.444;-2.018;2023-07-09T03:34:16;101723.66;;;12.43;100.00
43436;BME280;36399;51.444;-2.018;2023-07-09T03:36:42;101708.72;;;12.42;100.00
43436;BME280;36399;51.444;-2.018;2023-07-09T03:39:08;101721.09;;;12.46;100.00
43436;BME280;36399;51.444;-2.018;2023-07-09T03:41:34;101717.69;;;12.49;100.00
43436;BME280;36399;51.444;-2.018;2023-07-09T03:44:00;101719.41;;;12.48;100.00
43436;BME280;36399;51.444;-2.018;2023-07-09T03:46:26;101714.09;;;12.47;100.00
43436;BME280;36399;51.444;-2.018;2023-07-09T03:48:57;101716.72;;;12.47;100.00
43436;BME280;36399;51.444;-2.018;2023-07-09T03:51:23;101716.66;;;12.44;100.00
43436;BME280;36399;51.444;-2.018;2023-07-09T03:53:49;101704.31;;;12.41;100.00
43436;BME280;36399;51.444;-2.018;2023-07-09T03:56:15;101697.22;;;12.39;100.00
43436;BME280;36399;51.444;-2.018;2023-07-09T03:58:41;101689.34;;;12.40;100.00
43436;BME280;36399;51.444;-2.018;2023-07-09T04:01:07;101691.91;;;12.37;100.00
43436;BME280;36399;51.444;-2.018;2023-07-09T04:03:36;101684.94;;;12.39;100.00
43436;BME280;36399;51.444;-2.018;2023-07-09T04:06:02;101681.38;;;12.37;100.00
43436;BME280;36399;51.444;-2.018;2023-07-09T04:08:28;101694.66;;;12.42;100.00
43436;BME280;36399;51.444;-2.018;2023-07-09T04:10:58;101714.19;;;12.50;100.00
43436;BME280;36399;51.444;-2.018;2023-07-09T04:13:24;101708.19;;;12.55;100.00
43436;BME280;36399;51.444;-2.018;2023-07-09T04:15:50;101709.19;;;12.60;100.00
43436;BME280;36399;51.444;-2.018;2023-07-09T04:18:16;101730.53;;;12.71;100.00
43436;BME280;36399;51.444;-2.018;2023-07-09T04:20:42;101743.75;;;12.73;100.00
43436;BME280;36399;51.444;-2.018;2023-07-09T04:23:08;101749.16;;;12.79;100.00
43436;BME280;36399;51.444;-2.018;2023-07-09T04:25:34;101766.19;;;12.93;100.00
43436;BME280;36399;51.444;-2.018;2023-07-09T04:28:00;101767.81;;;12.88;100.00
43436;BME280;36399;51.444;-2.018;2023-07-09T04:30:26;101768.84;;;12.94;100.00
43436;BME280;36399;51.444;-2.018;2023-07-09T04:32:51;101754.66;;;12.88;100.00
43436;BME280;36399;51.444;-2.018;2023-07-09T04:35:20;101743.06;;;12.81;100.00
43436;BME280;36399;51.444;-2.018;2023-07-09T04:37:46;101735.28;;;12.86;100.00
43436;BME280;36399;51.444;-2.018;2023-07-09T04:40:13;101741.75;;;13.00;100.00
43436;BME280;36399;51.444;-2.018;2023-07-09T04:42:39;101739.19;;;13.02;100.00
43436;BME280;36399;51.444;-2.018;2023-07-09T04:45:07;101747.19;;;13.06;100.00
43436;BME280;36399;51.444;-2.018;2023-07-09T04:47:34;101733.94;;;13.03;100.00
43436;BME280;36399;51.444;-2.018;2023-07-09T04:49:59;101712.75;;;13.00;100.00
43436;BME280;36399;51.444;-2.018;2023-07-09T04:52:25;101696.91;;;12.99;100.00
43436;BME280;36399;51.444;-2.018;2023-07-09T04:54:51;101717.31;;;13.06;100.00
43436;BME280;36399;51.444;-2.018;2023-07-09T04:57:19;101734.31;;;13.18;100.00
43436;BME280;36399;51.444;-2.018;2023-07-09T04:59:45;101730.66;;;13.13;100.00
43436;BME280;36399;51.444;-2.018;2023-07-09T05:02:11;101740.44;;;13.17;100.00
43436;BME280;36399;51.444;-2.018;2023-07-09T05:04:37;101739.84;;;13.31;100.00
43436;BME280;36399;51.444;-2.018;2023-07-09T05:07:03;101728.94;;;13.15;100.00
43436;BME280;36399;51.444;-2.018;2023-07-09T05:09:29;101728.22;;;13.21;100.00
43436;BME280;36399;51.444;-2.018;2023-07-09T05:11:55;101708.75;;;13.16;100.00
43436;BME280;36399;51.444;-2.018;2023-07-09T05:14:21;101691.13;;;13.15;100.00
43436;BME280;36399;51.444;-2.018;2023-07-09T05:16:47;101702.81;;;13.24;100.00
43436;BME280;36399;51.444;-2.018;2023-07-09T05:19:13;101696.81;;;13.32;100.00
43436;BME280;36399;51.444;-2.018;2023-07-09T05:21:39;101690.81;;;13.39;100.00
43436;BME280;36399;51.444;-2.018;2023-07-09T05:24:05;101696.06;;;13.39;100.00
43436;BME280;36399;51.444;-2.018;2023-07-09T05:26:31;101690.88;;;13.42;100.00
43436;BME280;36399;51.444;-2.018;2023-07-09T05:28:57;101677.63;;;13.40;100.00
43436;BME280;36399;51.444;-2.018;2023-07-09T05:31:24;101696.06;;;13.39;100.00
43436;BME280;36399;51.444;-2.018;2023-07-09T05:33:50;101695.81;;;13.26;100.00
43436;BME280;36399;51.444;-2.018;2023-07-09T05:36:16;101712.50;;;13.25;100.00
43436;BME280;36399;51.444;-2.018;2023-07-09T05:38:43;101742.31;;;13.21;100.00
43436;BME280;36399;51.444;-2.018;2023-07-09T05:41:09;101757.59;;;13.38;100.00
43436;BME280;36399;51.444;-2.018;2023-07-09T05:43:35;101747.25;;;13.47;100.00
43436;BME280;36399;51.444;-2.018;2023-07-09T05:46:02;101751.44;;;13.37;100.00
43436;BME280;36399;51.444;-2.018;2023-07-09T05:48:28;101741.56;;;13.29;100.00
43436;BME280;36399;51.444;-2.018;2023-07-09T05:50:54;101718.56;;;13.21;100.00
43436;BME280;36399;51.444;-2.018;2023-07-09T05:53:21;101718.56;;;13.21;100.00
43436;BME280;36399;51.444;-2.018;2023-07-09T05:55:47;101738.28;;;13.39;100.00
43436;BME280;36399;51.444;-2.018;2023-07-09T05:58:14;101716.34;;;13.41;100.00
43436;BME280;36399;51.444;-2.018;2023-07-09T06:00:40;101724.44;;;13.50;100.00
43436;BME280;36399;51.444;-2.018;2023-07-09T06:03:07;101720.03;;;13.49;100.00
43436;BME280;36399;51.444;-2.018;2023-07-09T06:05:34;101705.03;;;13.47;100.00
43436;BME280;36399;51.444;-2.018;2023-07-09T06:08:00;101729.75;;;13.52;100.00
43436;BME280;36399;51.444;-2.018;2023-07-09T06:10:26;101733.19;;;13.48;100.00
43436;BME280;36399;51.444;-2.018;2023-07-09T06:12:52;101714.59;;;13.42;100.00
43436;BME280;36399;51.444;-2.018;2023-07-09T06:15:18;101714.66;;;13.45;100.00
43436;BME280;36399;51.444;-2.018;2023-07-09T06:17:44;101720.06;;;13.51;100.00
43436;BME280;36399;51.444;-2.018;2023-07-09T06:20:10;101699.81;;;13.50;100.00
43436;BME280;36399;51.444;-2.018;2023-07-09T06:22:36;101704.19;;;13.48;100.00
43436;BME280;36399;51.444;-2.018;2023-07-09T06:25:02;101698.97;;;13.51;100.00
43436;BME280;36399;51.444;-2.018;2023-07-09T06:27:28;101679.56;;;13.49;100.00
43436;BME280;36399;51.444;-2.018;2023-07-09T06:29:54;101678.97;;;13.61;100.00
43436;BME280;36399;51.444;-2.018;2023-07-09T06:32:20;101704.88;;;13.81;100.00
43436;BME280;36399;51.444;-2.018;2023-07-09T06:34:46;101699.63;;;13.83;100.00
43436;BME280;36399;51.444;-2.018;2023-07-09T06:37:12;101704.19;;;13.92;100.00
43436;BME280;36399;51.444;-2.018;2023-07-09T06:39:38;101686.78;;;14.03;100.00
43436;BME280;36399;51.444;-2.018;2023-07-09T06:42:04;101684.38;;;14.13;100.00
43436;BME280;36399;51.444;-2.018;2023-07-09T06:44:33;101690.59;;;14.17;100.00
43436;BME280;36399;51.444;-2.018;2023-07-09T06:46:59;101714.53;;;14.26;100.00
43436;BME280;36399;51.444;-2.018;2023-07-09T06:49:25;101716.44;;;14.35;100.00
43436;BME280;36399;51.444;-2.018;2023-07-09T06:51:51;101721.63;;;14.30;100.00
43436;BME280;36399;51.444;-2.018;2023-07-09T06:54:17;101723.50;;;14.36;100.00
43436;BME280;36399;51.444;-2.018;2023-07-09T06:56:43;101727.03;;;14.38;100.00
43436;BME280;36399;51.444;-2.018;2023-07-09T06:59:09;101736.66;;;14.34;100.00
43436;BME280;36399;51.444;-2.018;2023-07-09T07:01:35;101736.47;;;14.22;100.00
43436;BME280;36399;51.444;-2.018;2023-07-09T07:04:01;101731.91;;;14.13;100.00
43436;BME280;36399;51.444;-2.018;2023-07-09T07:06:27;101735.31;;;14.08;100.00
43436;BME280;36399;51.444;-2.018;2023-07-09T07:08:53;101751.94;;;14.04;100.00
43436;BME280;36399;51.444;-2.018;2023-07-09T07:11:19;101745.72;;;14.02;100.00
43436;BME280;36399;51.444;-2.018;2023-07-09T07:13:45;101746.81;;;14.10;100.00
43436;BME280;36399;51.444;-2.018;2023-07-09T07:16:13;101747.88;;;14.21;100.00
43436;BME280;36399;51.444;-2.018;2023-07-09T07:18:40;101746.91;;;14.16;100.00
43436;BME280;36399;51.444;-2.018;2023-07-09T07:21:06;101748.97;;;14.32;100.00
43436;BME280;36399;51.444;-2.018;2023-07-09T07:23:33;101718.16;;;14.33;100.00
43436;BME280;36399;51.444;-2.018;2023-07-09T07:25:59;101734.50;;;14.59;100.00
43436;BME280;36399;51.444;-2.018;2023-07-09T07:28:28;101736.47;;;14.72;100.00
43436;BME280;36399;51.444;-2.018;2023-07-09T07:31:01;101737.72;;;14.95;100.00
43436;BME280;36399;51.444;-2.018;2023-07-09T07:33:27;101739.00;;;15.20;100.00
43436;BME280;36399;51.444;-2.018;2023-07-09T07:35:53;101740.84;;;15.26;100.00
43436;BME280;36399;51.444;-2.018;2023-07-09T07:38:19;101738.41;;;15.42;100.00
43436;BME280;36399;51.444;-2.018;2023-07-09T07:40:45;101750.13;;;15.58;100.00
43436;BME280;36399;51.444;-2.018;2023-07-09T07:43:11;101733.22;;;15.50;100.00
43436;BME280;36399;51.444;-2.018;2023-07-09T07:45:44;101721.09;;;15.64;100.00
43436;BME280;36399;51.444;-2.018;2023-07-09T07:48:10;101699.88;;;15.61;100.00
43436;BME280;36399;51.444;-2.018;2023-07-09T07:50:36;101708.91;;;15.78;100.00
43436;BME280;36399;51.444;-2.018;2023-07-09T07:53:04;101707.25;;;15.90;100.00
43436;BME280;36399;51.444;-2.018;2023-07-09T07:55:29;101695.94;;;16.06;100.00
43436;BME280;36399;51.444;-2.018;2023-07-09T07:57:55;101687.97;;;16.03;100.00
43436;BME280;36399;51.444;-2.018;2023-07-09T08:00:22;101682.63;;;15.97;100.00
43436;BME280;36399;51.444;-2.018;2023-07-09T08:02:49;101674.47;;;15.77;100.00
43436;BME280;36399;51.444;-2.018;2023-07-09T08:05:15;101661.19;;;15.72;100.00
43436;BME280;36399;51.444;-2.018;2023-07-09T08:07:41;101645.38;;;15.78;100.00
43436;BME280;36399;51.444;-2.018;2023-07-09T08:10:07;101636.56;;;15.83;100.00
43436;BME280;36399;51.444;-2.018;2023-07-09T08:12:33;101635.66;;;15.79;100.00
43436;BME280;36399;51.444;-2.018;2023-07-09T08:14:59;101629.56;;;15.89;100.00
43436;BME280;36399;51.444;-2.018;2023-07-09T08:17:25;101624.47;;;16.12;100.00
43436;BME280;36399;51.444;-2.018;2023-07-09T08:19:53;101617.59;;;16.29;100.00
43436;BME280;36399;51.444;-2.018;2023-07-09T08:22:20;101598.19;;;16.36;100.00
43436;BME280;36399;51.444;-2.018;2023-07-09T08:24:48;101586.75;;;16.44;100.00
43436;BME280;36399;51.444;-2.018;2023-07-09T08:27:14;101558.75;;;16.82;100.00
43436;BME280;36399;51.444;-2.018;2023-07-09T08:29:40;101528.72;;;16.92;100.00
43436;BME280;36399;51.444;-2.018;2023-07-09T08:32:11;101503.13;;;17.10;100.00
43436;BME280;36399;51.444;-2.018;2023-07-09T08:34:38;101461.66;;;17.68;100.00
43436;BME280;36399;51.444;-2.018;2023-07-09T08:37:06;101412.97;;;17.89;100.00
43436;BME280;36399;51.444;-2.018;2023-07-09T08:39:32;101411.13;;;18.12;100.00
43436;BME280;36399;51.444;-2.018;2023-07-09T08:42:10;101364.16;;;18.25;100.00
43436;BME280;36399;51.444;-2.018;2023-07-09T08:50:36;101324.41;;;17.90;100.00
43436;BME280;36399;51.444;-2.018;2023-07-09T08:53:04;101256.31;;;17.72;100.00
43436;BME280;36399;51.444;-2.018;2023-07-09T08:55:33;101217.38;;;17.51;100.00
43436;BME280;36399;51.444;-2.018;2023-07-09T08:58:25;101213.81;;;17.74;100.00
43436;BME280;36399;51.444;-2.018;2023-07-09T09:00:55;101244.69;;;17.93;100.00
43436;BME280;36399;51.444;-2.018;2023-07-09T09:03:31;101254.44;;;17.94;100.00
43436;BME280;36399;51.444;-2.018;2023-07-09T09:06:01;101254.28;;;18.20;100.00
43436;BME280;36399;51.444;-2.018;2023-07-09T09:13:50;101194.06;;;18.19;100.00
43436;BME280;36399;51.444;-2.018;2023-07-09T09:16:26;101174.59;;;18.15;100.00
43436;BME280;36399;51.444;-2.018;2023-07-09T09:18:59;101168.44;;;18.07;100.00
43436;BME280;36399;51.444;-2.018;2023-07-09T09:21:26;101168.28;;;18.35;100.00
43436;BME280;36399;51.444;-2.018;2023-07-09T09:23:58;101184.91;;;18.59;100.00
43436;BME280;36399;51.444;-2.018;2023-07-09T09:26:32;101169.75;;;18.72;100.00
43436;BME280;36399;51.444;-2.018;2023-07-09T09:28:59;101128.06;;;18.73;100.00
43436;BME280;36399;51.444;-2.018;2023-07-09T09:31:27;101109.47;;;18.74;100.00
43436;BME280;36399;51.444;-2.018;2023-07-09T09:33:55;101126.19;;;18.85;100.00
43436;BME280;36399;51.444;-2.018;2023-07-09T09:36:23;101118.19;;;18.88;100.00
43436;BME280;36399;51.444;-2.018;2023-07-09T09:38:53;101127.78;;;19.02;100.00
43436;BME280;36399;51.444;-2.018;2023-07-09T09:41:22;101110.84;;;19.09;100.00
43436;BME280;36399;51.444;-2.018;2023-07-09T09:43:51;101114.31;;;19.15;100.00
43436;BME280;36399;51.444;-2.018;2023-07-09T09:46:26;101102.81;;;19.12;100.00
43436;BME280;36399;51.444;-2.018;2023-07-09T09:49:02;101106.19;;;19.29;100.00
43436;BME280;36399;51.444;-2.018;2023-07-09T09:51:33;101117.22;;;19.68;100.00
43436;BME280;36399;51.444;-2.018;2023-07-09T09:54:02;101105.66;;;19.69;100.00
43436;BME280;36399;51.444;-2.018;2023-07-09T09:56:36;101117.06;;;20.37;100.00
43436;BME280;36399;51.444;-2.018;2023-07-09T09:59:03;101056.53;;;20.90;100.00
43436;BME280;36399;51.444;-2.018;2023-07-09T10:01:34;101050.59;;;21.17;100.00
43436;BME280;36399;51.444;-2.018;2023-07-09T10:04:01;101018.59;;;21.94;100.00
43436;BME280;36399;51.444;-2.018;2023-07-09T10:06:38;100996.44;;;22.90;100.00
43436;BME280;36399;51.444;-2.018;2023-07-09T10:14:32;100992.56;;;22.35;100.00
43436;BME280;36399;51.444;-2.018;2023-07-09T10:20:21;100949.03;;;23.77;100.00
43436;BME280;36399;51.444;-2.018;2023-07-09T10:25:42;100970.94;;;23.34;100.00
43436;BME280;36399;51.444;-2.018;2023-07-09T10:36:33;100985.09;;;22.15;100.00
43436;BME280;36399;51.444;-2.018;2023-07-09T10:39:09;101007.59;;;22.07;100.00
43436;BME280;36399;51.444;-2.018;2023-07-09T10:41:39;101019.50;;;22.29;100.00
43436;BME280;36399;51.444;-2.018;2023-07-09T10:46:38;100962.03;;;22.75;100.00
43436;BME280;36399;51.444;-2.018;2023-07-09T10:49:10;100982.44;;;22.48;100.00
43436;BME280;36399;51.444;-2.018;2023-07-09T10:51:46;100984.50;;;22.36;100.00
43436;BME280;36399;51.444;-2.018;2023-07-09T10:54:24;100966.50;;;23.63;100.00
43436;BME280;36399;51.444;-2.018;2023-07-09T10:57:00;100944.53;;;23.78;100.00
43436;BME280;36399;51.444;-2.018;2023-07-09T10:59:35;100950.78;;;23.78;100.00
43436;BME280;36399;51.444;-2.018;2023-07-09T11:02:23;100952.22;;;23.88;100.00
43436;BME280;36399;51.444;-2.018;2023-07-09T11:04:56;100960.16;;;23.91;100.00
43436;BME280;36399;51.444;-2.018;2023-07-09T11:07:58;100948.31;;;24.73;100.00
43436;BME280;36399;51.444;-2.018;2023-07-09T11:10:32;100941.31;;;24.44;100.00
43436;BME280;36399;51.444;-2.018;2023-07-09T11:13:15;100933.06;;;25.21;100.00
43436;BME280;36399;51.444;-2.018;2023-07-09T11:15:46;100922.22;;;26.28;100.00
43436;BME280;36399;51.444;-2.018;2023-07-09T11:18:20;100915.91;;;27.08;100.00
43436;BME280;36399;51.444;-2.018;2023-07-09T11:20:55;100910.69;;;26.65;100.00
43436;BME280;36399;51.444;-2.018;2023-07-09T11:23:24;100921.63;;;25.15;100.00
43436;BME280;36399;51.444;-2.018;2023-07-09T11:26:11;100940.75;;;24.10;100.00
43436;BME280;36399;51.444;-2.018;2023-07-09T11:28:40;100935.88;;;23.14;100.00
43436;BME280;36399;51.444;-2.018;2023-07-09T11:31:14;100951.81;;;22.89;100.00
43436;BME280;36399;51.444;-2.018;2023-07-09T11:33:58;100966.47;;;22.12;100.00
43436;BME280;36399;51.444;-2.018;2023-07-09T11:36:28;100977.03;;;22.17;100.00
43436;BME280;36399;51.444;-2.018;2023-07-09T11:38:54;100956.34;;;23.16;100.00
43436;BME280;36399;51.444;-2.018;2023-07-09T11:41:43;100959.41;;;23.62;100.00
43436;BME280;36399;51.444;-2.018;2023-07-09T11:44:16;100947.91;;;23.58;100.00
43436;BME280;36399;51.444;-2.018;2023-07-09T11:47:19;100921.72;;;24.17;100.00
43436;BME280;36399;51.444;-2.018;2023-07-09T11:49:51;100942.91;;;23.74;100.00
43436;BME280;36399;51.444;-2.018;2023-07-09T11:52:23;100946.19;;;22.67;100.00
43436;BME280;36399;51.444;-2.018;2023-07-09T11:54:51;100980.72;;;21.76;100.00
43436;BME280;36399;51.444;-2.018;2023-07-09T11:57:17;101094.78;;;20.41;100.00
43436;BME280;36399;51.444;-2.018;2023-07-09T11:59:46;101201.84;;;19.43;100.00
43436;BME280;36399;51.444;-2.018;2023-07-09T12:02:19;101219.31;;;18.84;100.00
43436;BME280;36399;51.444;-2.018;2023-07-09T12:04:52;101217.56;;;18.81;100.00
43436;BME280;36399;51.444;-2.018;2023-07-09T12:07:20;101199.50;;;19.14;100.00
43436;BME280;36399;51.444;-2.018;2023-07-09T12:09:52;101186.84;;;19.37;100.00
43436;BME280;36399;51.444;-2.018;2023-07-09T12:12:21;101151.16;;;19.53;100.00
43436;BME280;36399;51.444;-2.018;2023-07-09T12:14:49;101145.78;;;19.57;100.00
43436;BME280;36399;51.444;-2.018;2023-07-09T12:17:15;101148.09;;;19.82;100.00
43436;BME280;36399;51.444;-2.018;2023-07-09T12:19:41;101135.28;;;20.07;100.00
43436;BME280;36399;51.444;-2.018;2023-07-09T12:22:15;101124.94;;;20.46;100.00
43436;BME280;36399;51.444;-2.018;2023-07-09T12:24:44;101105.19;;;20.56;100.00
43436;BME280;36399;51.444;-2.018;2023-07-09T12:27:20;101113.19;;;21.04;100.00
43436;BME280;36399;51.444;-2.018;2023-07-09T12:29:46;101084.59;;;21.52;100.00
43436;BME280;36399;51.444;-2.018;2023-07-09T12:32:15;101059.34;;;22.40;100.00
43436;BME280;36399;51.444;-2.018;2023-07-09T12:45:08;100998.91;;;24.09;100.00
43436;BME280;36399;51.444;-2.018;2023-07-09T12:47:39;100986.66;;;23.74;100.00
43436;BME280;36399;51.444;-2.018;2023-07-09T12:53:17;100997.78;;;24.41;100.00
43436;BME280;36399;51.444;-2.018;2023-07-09T12:55:45;100986.25;;;23.86;100.00
43436;BME280;36399;51.444;-2.018;2023-07-09T13:06:26;100938.81;;;25.55;100.00
43436;BME280;36399;51.444;-2.018;2023-07-09T13:08:56;100919.41;;;25.47;100.00
43436;BME280;36399;51.444;-2.018;2023-07-09T13:11:23;100922.81;;;24.12;100.00
43436;BME280;36399;51.444;-2.018;2023-07-09T13:14:02;100931.44;;;24.45;100.00
43436;BME280;36399;51.444;-2.018;2023-07-09T13:16:29;100916.25;;;25.15;100.00
43436;BME280;36399;51.444;-2.018;2023-07-09T13:18:55;100897.69;;;24.86;100.00
43436;BME280;36399;51.444;-2.018;2023-07-09T13:21:22;100919.69;;;23.73;100.00
43436;BME280;36399;51.444;-2.018;2023-07-09T13:23:53;100949.88;;;23.23;100.00
43436;BME280;36399;51.444;-2.018;2023-07-09T13:26:20;100953.75;;;22.84;100.00
43436;BME280;36399;51.444;-2.018;2023-07-09T13:28:49;100934.03;;;23.16;100.00
43436;BME280;36399;51.444;-2.018;2023-07-09T13:31:19;100927.56;;;22.95;100.00
43436;BME280;36399;51.444;-2.018;2023-07-09T13:34:07;100922.34;;;23.46;100.00
43436;BME280;36399;51.444;-2.018;2023-07-09T13:36:34;100891.16;;;24.46;100.00
43436;BME280;36399;51.444;-2.018;2023-07-09T13:39:00;100885.22;;;25.93;100.00